createdAt,value
2023-03-21T00:00:12.306Z,25.91
2023-03-21T00:04:12.454Z,25.93
2023-03-21T00:08:12.478Z,25.93
2023-03-21T00:12:12.501Z,25.91
2023-03-21T00:16:20.765Z,25.94
2023-03-21T00:20:13.565Z,25.93
2023-03-21T00:24:12.496Z,25.91
2023-03-21T00:28:12.460Z,25.93
2023-03-21T00:32:12.420Z,25.90
2023-03-21T00:36:12.804Z,25.88
2023-03-21T00:40:23.004Z,25.90
2023-03-21T00:44:13.400Z,25.91
2023-03-21T00:48:12.430Z,25.91
2023-03-21T00:52:20.163Z,25.88
2023-03-21T00:56:13.295Z,25.90
2023-03-21T01:00:12.218Z,25.88
2023-03-21T01:04:12.191Z,25.91
2023-03-21T01:08:25.101Z,25.91
2023-03-21T01:12:13.123Z,25.90
2023-03-21T01:16:12.097Z,25.90
2023-03-21T01:20:12.033Z,25.90
2023-03-21T01:24:12.002Z,25.90
2023-03-21T01:28:11.957Z,25.90
2023-03-21T01:32:11.928Z,25.90
2023-03-21T01:36:13.542Z,25.90
2023-03-21T01:40:12.134Z,25.90
2023-03-21T01:44:12.229Z,25.90
2023-03-21T01:48:12.407Z,25.90
2023-03-21T01:52:21.020Z,25.90
2023-03-21T01:56:13.418Z,25.88
2023-03-21T02:00:12.319Z,25.90
2023-03-21T02:04:12.349Z,25.88
2023-03-21T02:08:12.242Z,25.88
2023-03-21T02:12:12.262Z,25.91
2023-03-21T02:16:12.363Z,25.88
2023-03-21T02:20:12.481Z,25.87
2023-03-21T02:24:12.551Z,25.88
2023-03-21T02:28:12.649Z,25.88
2023-03-21T02:32:22.690Z,25.90
2023-03-21T02:36:14.755Z,25.85
2023-03-21T02:40:12.662Z,25.87
2023-03-21T02:44:12.659Z,25.87
2023-03-21T02:48:25.417Z,25.88
2023-03-21T02:52:17.154Z,25.87
2023-03-21T02:56:13.672Z,25.87
2023-03-21T03:00:16.560Z,25.87
2023-03-21T03:04:12.606Z,25.84
2023-03-21T03:08:12.577Z,25.87
2023-03-21T03:12:12.655Z,25.85
2023-03-21T03:16:12.548Z,25.88
2023-03-21T03:20:16.421Z,25.85
2023-03-21T03:24:12.408Z,25.85
2023-03-21T03:28:12.388Z,25.87
2023-03-21T03:32:12.354Z,25.85
2023-03-21T03:36:18.845Z,25.87
2023-03-21T03:40:13.287Z,25.90
2023-03-21T03:44:12.253Z,25.85
2023-03-21T03:48:12.192Z,25.84
2023-03-21T03:52:12.161Z,25.87
2023-03-21T03:56:12.135Z,25.84
2023-03-21T04:00:12.235Z,25.87
2023-03-21T04:04:13.651Z,25.85
2023-03-21T04:08:12.359Z,25.87
2023-03-21T04:12:12.432Z,25.84
2023-03-21T04:16:12.554Z,25.85
2023-03-21T04:20:20.725Z,25.87
2023-03-21T04:24:13.594Z,25.85
2023-03-21T04:28:12.552Z,25.84
2023-03-21T04:32:12.625Z,25.84
2023-03-21T04:36:12.513Z,25.84
2023-03-21T04:40:12.442Z,25.84
2023-03-21T04:44:12.508Z,25.85
2023-03-21T04:48:12.621Z,25.87
2023-03-21T04:52:12.683Z,25.87
2023-03-21T04:56:12.786Z,25.85
2023-03-21T05:00:12.862Z,25.85
2023-03-21T05:04:12.987Z,25.85
2023-03-21T05:08:13.009Z,25.85
2023-03-21T05:12:13.095Z,25.84
2023-03-21T05:16:13.260Z,25.84
2023-03-21T05:20:13.288Z,25.85
2023-03-21T05:24:13.351Z,25.85
2023-03-21T05:28:13.437Z,25.85
2023-03-21T05:32:13.505Z,25.85
2023-03-21T05:36:13.612Z,25.84
2023-03-21T05:40:13.676Z,25.87
2023-03-21T05:44:13.745Z,25.88
2023-03-21T05:48:13.874Z,25.90
2023-03-21T05:52:13.931Z,25.88
2023-03-21T05:56:14.016Z,25.90
2023-03-21T06:00:14.085Z,25.91
2023-03-21T06:04:14.193Z,25.93
2023-03-21T06:08:14.226Z,26.01
2023-03-21T06:12:14.690Z,26.01
2023-03-21T06:16:14.348Z,26.05
2023-03-21T06:20:14.679Z,26.07
2023-03-21T06:24:14.382Z,26.08
2023-03-21T06:28:14.664Z,26.13
2023-03-21T06:32:14.696Z,26.11
2023-03-21T06:36:14.496Z,26.15
2023-03-21T06:40:14.674Z,26.38
2023-03-21T06:44:14.709Z,26.58
2023-03-21T06:48:14.628Z,26.75
2023-03-21T06:52:14.557Z,26.85
2023-03-21T06:56:14.512Z,27.00
2023-03-21T07:00:14.522Z,27.05
2023-03-21T07:04:14.452Z,27.09
2023-03-21T07:08:14.445Z,27.05
2023-03-21T07:12:14.389Z,27.12
2023-03-21T07:16:14.487Z,27.14
2023-03-21T07:20:14.397Z,27.14
2023-03-21T07:24:14.279Z,27.17
2023-03-21T07:28:14.269Z,27.16
2023-03-21T07:32:14.758Z,26.99
2023-03-21T07:36:14.167Z,26.96
2023-03-21T07:40:15.270Z,27.05
2023-03-21T07:44:14.330Z,27.14
2023-03-21T07:48:14.766Z,27.26
2023-03-21T07:52:14.731Z,27.33
2023-03-21T07:56:14.540Z,27.39
2023-03-21T08:00:14.568Z,27.42
2023-03-21T08:04:14.728Z,27.47
2023-03-21T08:08:14.614Z,27.52
2023-03-21T08:12:14.594Z,27.54
2023-03-21T08:16:14.543Z,27.57
2023-03-21T08:20:14.551Z,27.61
2023-03-21T08:24:14.614Z,27.61
2023-03-21T08:28:14.725Z,27.57
2023-03-21T08:32:14.735Z,27.46
2023-03-21T08:36:15.241Z,27.36
2023-03-21T08:40:15.244Z,27.49
2023-03-21T08:44:15.239Z,27.57
2023-03-21T08:48:14.904Z,27.58
2023-03-21T08:52:14.861Z,27.65
2023-03-21T08:56:14.831Z,27.65
2023-03-21T09:00:15.025Z,27.73
2023-03-21T09:04:15.132Z,27.77
2023-03-21T09:08:15.260Z,27.77
2023-03-21T09:12:15.748Z,27.85
2023-03-21T09:16:15.439Z,27.90
2023-03-21T09:20:15.369Z,27.83
2023-03-21T09:24:15.776Z,27.90
2023-03-21T09:28:15.310Z,27.84
2023-03-21T09:32:15.258Z,27.71
2023-03-21T09:36:15.269Z,27.50
2023-03-21T09:40:15.202Z,27.50
2023-03-21T09:44:15.162Z,27.60
2023-03-21T09:48:15.511Z,27.70
2023-03-21T09:52:15.087Z,27.75
2023-03-21T09:56:15.110Z,27.77
2023-03-21T10:00:15.014Z,27.87
2023-03-21T10:04:15.284Z,27.84
2023-03-21T10:08:15.326Z,27.79
2023-03-21T10:12:15.295Z,27.79
2023-03-21T10:16:15.385Z,27.85
2023-03-21T10:20:15.307Z,27.80
2023-03-21T10:24:15.818Z,27.83
2023-03-21T10:28:15.823Z,27.70
2023-03-21T10:32:16.266Z,27.77
2023-03-21T10:36:15.944Z,27.80
2023-03-21T10:40:16.279Z,27.75
2023-03-21T10:44:16.090Z,27.70
2023-03-21T10:48:16.462Z,27.65
2023-03-21T10:52:16.281Z,27.63
2023-03-21T10:56:16.073Z,27.67
2023-03-21T11:00:16.072Z,27.68
2023-03-21T11:04:16.027Z,27.67
2023-03-21T11:08:16.068Z,27.65
2023-03-21T11:12:16.044Z,27.73
2023-03-21T11:16:16.147Z,27.83
2023-03-21T11:20:16.330Z,27.93
2023-03-21T11:24:16.815Z,27.75
2023-03-21T11:28:16.465Z,27.73
2023-03-21T11:32:16.469Z,27.47
2023-03-21T11:36:16.609Z,27.44
2023-03-21T11:40:16.662Z,27.49
2023-03-21T11:44:16.622Z,27.58
2023-03-21T11:48:16.624Z,27.71
2023-03-21T11:52:16.580Z,27.68
2023-03-21T11:56:16.630Z,27.73
2023-03-21T12:00:16.734Z,27.73
2023-03-21T12:04:16.766Z,27.68
2023-03-21T12:08:16.706Z,27.67
2023-03-21T12:12:18.613Z,27.46
2023-03-21T12:16:17.480Z,27.40
2023-03-21T12:20:16.689Z,27.07
2023-03-21T12:24:16.827Z,26.71
2023-03-21T12:28:21.303Z,26.27
2023-03-21T12:32:17.660Z,25.88
2023-03-21T12:36:16.638Z,25.63
2023-03-21T12:40:16.699Z,25.49
2023-03-21T12:44:16.837Z,25.47
2023-03-21T12:48:17.181Z,25.39
2023-03-21T12:52:17.141Z,25.29
2023-03-21T12:56:17.113Z,25.33
2023-03-21T13:00:17.039Z,25.47
2023-03-21T13:04:17.500Z,25.70
2023-03-21T13:08:17.331Z,25.87
2023-03-21T13:12:17.022Z,26.01
2023-03-21T13:16:16.951Z,26.15
2023-03-21T13:20:17.418Z,26.21
2023-03-21T13:24:16.862Z,26.28
2023-03-21T13:28:16.775Z,26.31
2023-03-21T13:32:16.839Z,26.38
2023-03-21T13:36:16.762Z,26.39
2023-03-21T13:40:16.698Z,26.44
2023-03-21T13:44:16.657Z,26.45
2023-03-21T13:48:16.651Z,26.46
2023-03-21T13:52:16.708Z,26.48
2023-03-21T13:56:16.545Z,26.45
2023-03-21T14:00:16.846Z,26.48
2023-03-21T14:04:16.684Z,26.48
2023-03-21T14:08:24.841Z,26.48
2023-03-21T14:12:17.890Z,26.48
2023-03-21T14:16:16.760Z,26.51
2023-03-21T14:20:16.925Z,26.49
2023-03-21T14:24:17.183Z,26.46
2023-03-21T14:28:17.218Z,26.45
2023-03-21T14:32:17.349Z,26.45
2023-03-21T14:36:17.569Z,26.42
2023-03-21T14:40:17.974Z,26.42
2023-03-21T14:44:17.860Z,26.39
2023-03-21T14:48:17.815Z,26.38
2023-03-21T14:52:17.919Z,26.38
2023-03-21T14:56:18.031Z,26.39
2023-03-21T15:00:18.028Z,26.37
2023-03-21T15:04:18.380Z,26.35
2023-03-21T15:08:18.194Z,26.35
2023-03-21T15:12:18.298Z,26.34
2023-03-21T15:16:18.364Z,26.32
2023-03-21T15:20:18.224Z,26.32
2023-03-21T15:24:18.192Z,26.32
2023-03-21T15:28:18.247Z,26.28
2023-03-21T15:32:18.184Z,26.31
2023-03-21T15:36:18.161Z,26.32
2023-03-21T15:40:18.139Z,26.32
2023-03-21T15:44:18.188Z,26.34
2023-03-21T15:48:18.100Z,26.34
2023-03-21T15:52:18.093Z,26.31
2023-03-21T15:56:18.047Z,26.31
2023-03-21T16:00:18.121Z,26.34
2023-03-21T16:04:18.011Z,26.30
2023-03-21T16:08:17.993Z,26.30
2023-03-21T16:12:19.029Z,26.30
2023-03-21T16:16:17.979Z,26.28
2023-03-21T16:20:18.418Z,26.28
2023-03-21T16:24:17.876Z,26.27
2023-03-21T16:28:17.879Z,26.24
2023-03-21T16:32:17.873Z,26.24
2023-03-21T16:36:17.918Z,26.23
2023-03-21T16:40:17.958Z,26.23
2023-03-21T16:44:17.870Z,26.18
2023-03-21T16:48:17.943Z,26.20
2023-03-21T16:52:17.863Z,26.17
2023-03-21T16:56:17.864Z,26.17
2023-03-21T17:00:17.905Z,26.15
2023-03-21T17:04:18.004Z,26.14
2023-03-21T17:08:17.894Z,26.13
2023-03-21T17:12:17.871Z,26.11
2023-03-21T17:16:17.934Z,26.09
2023-03-21T17:20:17.958Z,26.14
2023-03-21T17:24:17.903Z,26.11
2023-03-21T17:28:17.909Z,26.09
2023-03-21T17:32:17.935Z,26.08
2023-03-21T17:36:17.891Z,26.07
2023-03-21T17:40:17.934Z,26.08
2023-03-21T17:44:17.916Z,26.09
2023-03-21T17:48:17.962Z,26.08
2023-03-21T17:52:17.930Z,26.05
2023-03-21T18:00:37.141Z,26.08
2023-03-21T18:04:36.782Z,26.08
2023-03-21T18:08:36.692Z,26.07
2023-03-21T18:12:36.987Z,26.07
2023-03-21T18:16:36.675Z,26.07
2023-03-21T18:20:53.945Z,26.07
2023-03-21T18:24:37.546Z,26.05
2023-03-21T18:28:36.499Z,26.07
2023-03-21T18:32:36.507Z,26.04
2023-03-21T18:36:36.678Z,26.03
2023-03-21T18:40:37.015Z,26.04
2023-03-21T18:44:36.617Z,26.03
2023-03-21T18:48:36.654Z,26.03
2023-03-21T18:52:36.713Z,26.04
2023-03-21T18:57:27.254Z,26.03
2023-03-21T19:00:37.914Z,26.03
2023-03-21T19:04:37.485Z,26.04
2023-03-21T19:08:37.001Z,26.01
2023-03-21T19:12:36.501Z,26.01
2023-03-21T19:16:58.890Z,26.04
2023-03-21T19:20:37.799Z,26.01
2023-03-21T19:24:36.722Z,26.01
2023-03-21T19:28:36.354Z,26.00
2023-03-21T19:32:36.317Z,26.00
2023-03-21T19:36:36.404Z,26.01
2023-03-21T19:40:36.589Z,26.03
2023-03-21T19:44:36.454Z,26.01
2023-03-21T19:48:37.147Z,26.00
2023-03-21T19:52:36.483Z,25.97
2023-03-21T19:56:37.654Z,26.00
2023-03-21T20:00:36.687Z,26.00
2023-03-21T20:04:36.589Z,26.01
2023-03-21T20:09:05.392Z,26.00
2023-03-21T20:12:37.631Z,26.00
2023-03-21T20:16:36.703Z,25.98
2023-03-21T20:20:36.730Z,25.98
2023-03-21T20:24:36.484Z,25.98
2023-03-21T20:28:38.125Z,25.97
2023-03-21T20:32:36.416Z,25.95
2023-03-21T20:36:41.323Z,25.97
2023-03-21T20:40:37.678Z,25.97
2023-03-21T20:45:00.594Z,25.97
2023-03-21T20:48:37.265Z,25.94
2023-03-21T20:56:37.201Z,25.97
2023-03-21T21:00:36.351Z,25.98
2023-03-21T21:05:03.538Z,25.95
2023-03-21T21:08:37.098Z,25.97
2023-03-21T21:12:36.050Z,25.95
2023-03-21T21:16:35.996Z,25.97
2023-03-21T21:20:36.143Z,25.94
2023-03-21T21:24:35.923Z,25.95
2023-03-21T21:28:35.894Z,25.97
2023-03-21T21:32:35.858Z,25.95
2023-03-21T21:36:35.823Z,25.95
2023-03-21T21:40:35.911Z,25.94
2023-03-21T21:44:35.762Z,25.95
2023-03-21T21:48:35.750Z,25.94
2023-03-21T21:52:35.707Z,25.93
2023-03-21T21:56:37.905Z,25.95
2023-03-21T22:00:35.813Z,25.94
2023-03-21T22:04:35.702Z,25.95
2023-03-21T22:08:35.663Z,25.94
2023-03-21T22:12:35.669Z,25.94
2023-03-21T22:16:35.686Z,25.94
2023-03-21T22:20:35.595Z,25.93
2023-03-21T22:24:35.590Z,25.95
2023-03-21T22:28:35.579Z,25.93
2023-03-21T22:32:35.626Z,25.94
2023-03-21T22:36:35.533Z,25.94
2023-03-21T22:40:35.535Z,25.93
2023-03-21T22:44:35.522Z,25.95
2023-03-21T22:48:35.487Z,25.93
2023-03-21T22:52:35.496Z,25.93
2023-03-21T22:56:35.491Z,25.94
2023-03-21T23:00:35.484Z,25.91
2023-03-21T23:04:35.495Z,25.94
2023-03-21T23:08:35.453Z,25.91
2023-03-21T23:12:35.457Z,25.95
2023-03-21T23:16:35.457Z,25.94
2023-03-21T23:20:35.472Z,25.93
2023-03-21T23:24:35.457Z,25.95
2023-03-21T23:28:35.484Z,25.91
2023-03-21T23:32:35.445Z,25.90
2023-03-21T23:36:35.435Z,25.93
2023-03-21T23:40:35.454Z,25.91
2023-03-21T23:44:35.379Z,25.93
2023-03-21T23:48:35.376Z,25.90
2023-03-21T23:52:35.368Z,25.93
2023-03-21T23:56:35.404Z,25.90
